sensor_id;sensor_type;location;lat;lon;timestamp;P1;durP1;ratioP1;P2;durP2;ratioP2
9080;SDS011;13509;50.760;6.080;2023-05-07T00:01:27;5.43;;;2.47;;
9080;SDS011;13509;50.760;6.080;2023-05-07T00:03:57;3.20;;;2.67;;
9080;SDS011;13509;50.760;6.080;2023-05-07T00:06:25;6.27;;;2.60;;
9080;SDS011;13509;50.760;6.080;2023-05-07T00:08:55;4.87;;;2.47;;
9080;SDS011;13509;50.760;6.080;2023-05-07T00:11:24;2.70;;;2.20;;
9080;SDS011;13509;50.760;6.080;2023-05-07T00:13:53;3.73;;;2.20;;
9080;SDS011;13509;50.760;6.080;2023-05-07T00:16:21;3.53;;;2.30;;
9080;SDS011;13509;50.760;6.080;2023-05-07T00:18:49;3.13;;;2.33;;
9080;SDS011;13509;50.760;6.080;2023-05-07T00:21:19;2.93;;;2.17;;
9080;SDS011;13509;50.760;6.080;2023-05-07T00:23:47;6.10;;;2.13;;
9080;SDS011;13509;50.760;6.080;2023-05-07T00:26:15;3.90;;;2.00;;
9080;SDS011;13509;50.760;6.080;2023-05-07T00:28:44;2.60;;;2.37;;
9080;SDS011;13509;50.760;6.080;2023-05-07T00:31:12;3.47;;;1.90;;
9080;SDS011;13509;50.760;6.080;2023-05-07T00:33:40;3.73;;;2.07;;
9080;SDS011;13509;50.760;6.080;2023-05-07T00:36:11;2.10;;;1.90;;
9080;SDS011;13509;50.760;6.080;2023-05-07T00:38:40;4.23;;;2.03;;
9080;SDS011;13509;50.760;6.080;2023-05-07T00:41:09;3.27;;;2.00;;
9080;SDS011;13509;50.760;6.080;2023-05-07T00:43:37;3.60;;;1.80;;
9080;SDS011;13509;50.760;6.080;2023-05-07T00:46:06;2.77;;;1.63;;
9080;SDS011;13509;50.760;6.080;2023-05-07T00:48:34;3.07;;;1.70;;
9080;SDS011;13509;50.760;6.080;2023-05-07T00:51:02;4.60;;;2.30;;
9080;SDS011;13509;50.760;6.080;2023-05-07T00:53:31;3.67;;;1.97;;
9080;SDS011;13509;50.760;6.080;2023-05-07T00:56:00;2.23;;;1.80;;
9080;SDS011;13509;50.760;6.080;2023-05-07T00:58:28;3.80;;;1.80;;
9080;SDS011;13509;50.760;6.080;2023-05-07T01:00:57;3.43;;;1.80;;
9080;SDS011;13509;50.760;6.080;2023-05-07T01:03:25;4.87;;;1.87;;
9080;SDS011;13509;50.760;6.080;2023-05-07T01:05:54;4.03;;;2.10;;
9080;SDS011;13509;50.760;6.080;2023-05-07T01:08:24;4.60;;;2.57;;
9080;SDS011;13509;50.760;6.080;2023-05-07T01:10:54;3.73;;;2.33;;
9080;SDS011;13509;50.760;6.080;2023-05-07T01:13:23;4.67;;;2.20;;
9080;SDS011;13509;50.760;6.080;2023-05-07T01:15:52;4.97;;;2.20;;
9080;SDS011;13509;50.760;6.080;2023-05-07T01:18:21;3.33;;;1.87;;
9080;SDS011;13509;50.760;6.080;2023-05-07T01:20:49;4.17;;;2.10;;
9080;SDS011;13509;50.760;6.080;2023-05-07T01:23:18;4.07;;;2.13;;
9080;SDS011;13509;50.760;6.080;2023-05-07T01:25:50;2.20;;;2.00;;
9080;SDS011;13509;50.760;6.080;2023-05-07T01:28:19;3.33;;;2.30;;
9080;SDS011;13509;50.760;6.080;2023-05-07T01:31:00;2.30;;;2.10;;
9080;SDS011;13509;50.760;6.080;2023-05-07T01:33:29;2.93;;;2.40;;
9080;SDS011;13509;50.760;6.080;2023-05-07T01:35:59;4.83;;;2.33;;
9080;SDS011;13509;50.760;6.080;2023-05-07T01:38:31;3.63;;;2.30;;
9080;SDS011;13509;50.760;6.080;2023-05-07T01:40:59;3.67;;;2.40;;
9080;SDS011;13509;50.760;6.080;2023-05-07T01:43:28;2.33;;;2.13;;
9080;SDS011;13509;50.760;6.080;2023-05-07T01:45:56;3.60;;;2.53;;
9080;SDS011;13509;50.760;6.080;2023-05-07T01:48:25;2.53;;;2.03;;
9080;SDS011;13509;50.760;6.080;2023-05-07T01:50:53;3.80;;;2.70;;
9080;SDS011;13509;50.760;6.080;2023-05-07T01:53:22;2.87;;;2.40;;
9080;SDS011;13509;50.760;6.080;2023-05-07T01:55:52;3.37;;;2.50;;
9080;SDS011;13509;50.760;6.080;2023-05-07T01:58:20;4.07;;;2.50;;
9080;SDS011;13509;50.760;6.080;2023-05-07T02:00:48;3.17;;;2.37;;
9080;SDS011;13509;50.760;6.080;2023-05-07T02:03:17;2.63;;;2.43;;
9080;SDS011;13509;50.760;6.080;2023-05-07T02:05:45;4.33;;;2.57;;
9080;SDS011;13509;50.760;6.080;2023-05-07T02:08:13;5.93;;;2.40;;
9080;SDS011;13509;50.760;6.080;2023-05-07T02:10:41;5.83;;;2.37;;
9080;SDS011;13509;50.760;6.080;2023-05-07T02:13:11;2.60;;;2.03;;
9080;SDS011;13509;50.760;6.080;2023-05-07T02:15:39;3.23;;;2.30;;
9080;SDS011;13509;50.760;6.080;2023-05-07T02:18:08;2.47;;;2.17;;
9080;SDS011;13509;50.760;6.080;2023-05-07T02:20:36;2.67;;;2.00;;
9080;SDS011;13509;50.760;6.080;2023-05-07T02:23:04;3.63;;;2.10;;
9080;SDS011;13509;50.760;6.080;2023-05-07T02:25:32;4.00;;;2.40;;
9080;SDS011;13509;50.760;6.080;2023-05-07T02:28:00;3.07;;;2.40;;
9080;SDS011;13509;50.760;6.080;2023-05-07T02:30:30;3.70;;;2.33;;
9080;SDS011;13509;50.760;6.080;2023-05-07T02:32:59;5.23;;;2.20;;
9080;SDS011;13509;50.760;6.080;2023-05-07T02:35:27;2.93;;;2.50;;
9080;SDS011;13509;50.760;6.080;2023-05-07T02:37:55;3.33;;;2.67;;
9080;SDS011;13509;50.760;6.080;2023-05-07T02:40:23;3.13;;;2.40;;
9080;SDS011;13509;50.760;6.080;2023-05-07T02:42:52;5.13;;;2.13;;
9080;SDS011;13509;50.760;6.080;2023-05-07T02:45:21;3.03;;;2.17;;
9080;SDS011;13509;50.760;6.080;2023-05-07T02:47:50;2.60;;;2.40;;
9080;SDS011;13509;50.760;6.080;2023-05-07T02:50:19;2.93;;;2.17;;
9080;SDS011;13509;50.760;6.080;2023-05-07T02:52:47;4.40;;;2.33;;
9080;SDS011;13509;50.760;6.080;2023-05-07T02:55:15;2.10;;;1.87;;
9080;SDS011;13509;50.760;6.080;2023-05-07T02:57:43;3.53;;;2.13;;
9080;SDS011;13509;50.760;6.080;2023-05-07T03:00:13;3.07;;;2.20;;
9080;SDS011;13509;50.760;6.080;2023-05-07T03:02:41;2.90;;;1.87;;
9080;SDS011;13509;50.760;6.080;2023-05-07T03:05:11;3.83;;;2.00;;
9080;SDS011;13509;50.760;6.080;2023-05-07T03:07:40;3.70;;;2.10;;
9080;SDS011;13509;50.760;6.080;2023-05-07T03:10:11;2.97;;;2.50;;
9080;SDS011;13509;50.760;6.080;2023-05-07T03:12:39;2.97;;;2.20;;
9080;SDS011;13509;50.760;6.080;2023-05-07T03:15:08;2.47;;;1.87;;
9080;SDS011;13509;50.760;6.080;2023-05-07T03:17:37;5.43;;;2.43;;
9080;SDS011;13509;50.760;6.080;2023-05-07T03:20:06;2.97;;;2.00;;
9080;SDS011;13509;50.760;6.080;2023-05-07T03:22:37;4.67;;;2.60;;
9080;SDS011;13509;50.760;6.080;2023-05-07T03:25:06;3.53;;;2.27;;
9080;SDS011;13509;50.760;6.080;2023-05-07T03:27:34;2.33;;;2.00;;
9080;SDS011;13509;50.760;6.080;2023-05-07T03:30:03;3.30;;;2.30;;
9080;SDS011;13509;50.760;6.080;2023-05-07T03:32:33;4.20;;;2.20;;
9080;SDS011;13509;50.760;6.080;2023-05-07T03:35:01;4.57;;;2.33;;
9080;SDS011;13509;50.760;6.080;2023-05-07T03:37:29;1.90;;;1.80;;
9080;SDS011;13509;50.760;6.080;2023-05-07T03:39:59;3.03;;;2.30;;
9080;SDS011;13509;50.760;6.080;2023-05-07T03:42:28;3.60;;;2.23;;
9080;SDS011;13509;50.760;6.080;2023-05-07T03:44:56;3.90;;;2.40;;
9080;SDS011;13509;50.760;6.080;2023-05-07T03:47:24;2.47;;;2.10;;
9080;SDS011;13509;50.760;6.080;2023-05-07T03:49:53;4.10;;;2.30;;
9080;SDS011;13509;50.760;6.080;2023-05-07T03:52:21;2.53;;;2.33;;
9080;SDS011;13509;50.760;6.080;2023-05-07T03:54:52;2.60;;;2.20;;
9080;SDS011;13509;50.760;6.080;2023-05-07T03:57:21;2.50;;;2.27;;
9080;SDS011;13509;50.760;6.080;2023-05-07T03:59:50;2.60;;;2.40;;
9080;SDS011;13509;50.760;6.080;2023-05-07T04:02:18;3.27;;;2.57;;
9080;SDS011;13509;50.760;6.080;2023-05-07T04:04:48;3.13;;;2.47;;
9080;SDS011;13509;50.760;6.080;2023-05-07T04:07:16;3.70;;;2.10;;
9080;SDS011;13509;50.760;6.080;2023-05-07T04:09:44;3.37;;;2.20;;
9080;SDS011;13509;50.760;6.080;2023-05-07T04:12:12;2.87;;;2.30;;
9080;SDS011;13509;50.760;6.080;2023-05-07T04:14:42;3.83;;;2.40;;
9080;SDS011;13509;50.760;6.080;2023-05-07T04:17:10;2.90;;;2.60;;
9080;SDS011;13509;50.760;6.080;2023-05-07T04:19:38;2.73;;;2.13;;
9080;SDS011;13509;50.760;6.080;2023-05-07T04:22:11;5.37;;;2.60;;
9080;SDS011;13509;50.760;6.080;2023-05-07T04:24:39;2.67;;;2.40;;
9080;SDS011;13509;50.760;6.080;2023-05-07T04:27:07;3.77;;;2.53;;
9080;SDS011;13509;50.760;6.080;2023-05-07T04:29:35;2.47;;;2.03;;
9080;SDS011;13509;50.760;6.080;2023-05-07T04:32:06;2.73;;;2.37;;
9080;SDS011;13509;50.760;6.080;2023-05-07T04:34:34;2.80;;;2.00;;
9080;SDS011;13509;50.760;6.080;2023-05-07T04:37:02;2.77;;;2.40;;
9080;SDS011;13509;50.760;6.080;2023-05-07T04:39:30;2.60;;;2.00;;
9080;SDS011;13509;50.760;6.080;2023-05-07T04:42:01;3.07;;;2.30;;
9080;SDS011;13509;50.760;6.080;2023-05-07T04:44:30;4.20;;;2.60;;
9080;SDS011;13509;50.760;6.080;2023-05-07T04:46:58;3.03;;;2.23;;
9080;SDS011;13509;50.760;6.080;2023-05-07T04:49:28;3.27;;;2.70;;
9080;SDS011;13509;50.760;6.080;2023-05-07T04:51:56;3.63;;;2.53;;
9080;SDS011;13509;50.760;6.080;2023-05-07T04:54:24;3.63;;;2.40;;
9080;SDS011;13509;50.760;6.080;2023-05-07T04:56:52;2.37;;;2.13;;
9080;SDS011;13509;50.760;6.080;2023-05-07T04:59:21;5.50;;;2.47;;
9080;SDS011;13509;50.760;6.080;2023-05-07T05:01:49;3.03;;;2.47;;
9080;SDS011;13509;50.760;6.080;2023-05-07T05:04:17;3.17;;;2.40;;
9080;SDS011;13509;50.760;6.080;2023-05-07T05:06:47;3.97;;;2.50;;
9080;SDS011;13509;50.760;6.080;2023-05-07T05:09:15;4.80;;;2.73;;
9080;SDS011;13509;50.760;6.080;2023-05-07T05:11:43;4.47;;;2.30;;
9080;SDS011;13509;50.760;6.080;2023-05-07T05:14:12;3.00;;;2.40;;
9080;SDS011;13509;50.760;6.080;2023-05-07T05:16:40;2.93;;;2.50;;
9080;SDS011;13509;50.760;6.080;2023-05-07T05:19:08;4.53;;;2.73;;
9080;SDS011;13509;50.760;6.080;2023-05-07T05:21:36;4.07;;;2.40;;
9080;SDS011;13509;50.760;6.080;2023-05-07T05:24:06;2.73;;;2.30;;
9080;SDS011;13509;50.760;6.080;2023-05-07T05:26:34;2.40;;;2.20;;
9080;SDS011;13509;50.760;6.080;2023-05-07T05:29:02;3.90;;;2.50;;
9080;SDS011;13509;50.760;6.080;2023-05-07T05:31:31;3.40;;;2.60;;
9080;SDS011;13509;50.760;6.080;2023-05-07T05:33:59;4.30;;;2.40;;
9080;SDS011;13509;50.760;6.080;2023-05-07T05:36:28;3.03;;;2.30;;
9080;SDS011;13509;50.760;6.080;2023-05-07T05:38:56;3.17;;;2.87;;
9080;SDS011;13509;50.760;6.080;2023-05-07T05:41:26;3.23;;;2.40;;
9080;SDS011;13509;50.760;6.080;2023-05-07T05:43:54;3.00;;;2.60;;
9080;SDS011;13509;50.760;6.080;2023-05-07T05:46:22;4.07;;;2.50;;
9080;SDS011;13509;50.760;6.080;2023-05-07T05:48:50;4.00;;;2.40;;
9080;SDS011;13509;50.760;6.080;2023-05-07T05:51:18;2.83;;;2.30;;
9080;SDS011;13509;50.760;6.080;2023-05-07T05:53:47;3.33;;;2.40;;
9080;SDS011;13509;50.760;6.080;2023-05-07T05:56:15;3.03;;;2.30;;
9080;SDS011;13509;50.760;6.080;2023-05-07T05:58:44;3.30;;;2.07;;
9080;SDS011;13509;50.760;6.080;2023-05-07T06:01:13;3.40;;;2.17;;
9080;SDS011;13509;50.760;6.080;2023-05-07T06:03:41;2.43;;;2.10;;
9080;SDS011;13509;50.760;6.080;2023-05-07T06:06:09;4.10;;;2.17;;
9080;SDS011;13509;50.760;6.080;2023-05-07T06:08:37;2.40;;;2.20;;
9080;SDS011;13509;50.760;6.080;2023-05-07T06:11:05;2.63;;;2.40;;
9080;SDS011;13509;50.760;6.080;2023-05-07T06:13:34;3.23;;;1.93;;
9080;SDS011;13509;50.760;6.080;2023-05-07T06:16:03;3.07;;;2.60;;
9080;SDS011;13509;50.760;6.080;2023-05-07T06:18:32;2.90;;;2.60;;
9080;SDS011;13509;50.760;6.080;2023-05-07T06:21:02;3.77;;;2.00;;
9080;SDS011;13509;50.760;6.080;2023-05-07T06:23:30;6.57;;;2.53;;
9080;SDS011;13509;50.760;6.080;2023-05-07T06:25:58;3.03;;;2.27;;
9080;SDS011;13509;50.760;6.080;2023-05-07T06:28:26;3.37;;;2.23;;
9080;SDS011;13509;50.760;6.080;2023-05-07T06:31:11;2.93;;;2.60;;
9080;SDS011;13509;50.760;6.080;2023-05-07T06:33:40;2.97;;;2.00;;
9080;SDS011;13509;50.760;6.080;2023-05-07T06:36:08;2.60;;;2.10;;
9080;SDS011;13509;50.760;6.080;2023-05-07T06:38:36;3.23;;;2.40;;
9080;SDS011;13509;50.760;6.080;2023-05-07T06:41:05;2.40;;;2.20;;
9080;SDS011;13509;50.760;6.080;2023-05-07T06:43:33;4.10;;;2.60;;
9080;SDS011;13509;50.760;6.080;2023-05-07T06:46:01;4.80;;;2.80;;
9080;SDS011;13509;50.760;6.080;2023-05-07T06:48:31;5.00;;;2.40;;
9080;SDS011;13509;50.760;6.080;2023-05-07T06:50:59;2.90;;;2.07;;
9080;SDS011;13509;50.760;6.080;2023-05-07T06:53:27;3.13;;;2.30;;
9080;SDS011;13509;50.760;6.080;2023-05-07T06:55:56;3.57;;;2.53;;
9080;SDS011;13509;50.760;6.080;2023-05-07T06:58:25;2.43;;;2.23;;
9080;SDS011;13509;50.760;6.080;2023-05-07T07:00:53;2.40;;;2.20;;
9080;SDS011;13509;50.760;6.080;2023-05-07T07:03:21;4.03;;;2.43;;
9080;SDS011;13509;50.760;6.080;2023-05-07T07:05:52;2.60;;;2.40;;
9080;SDS011;13509;50.760;6.080;2023-05-07T07:08:21;7.00;;;2.67;;
9080;SDS011;13509;50.760;6.080;2023-05-07T07:10:49;2.73;;;2.40;;
9080;SDS011;13509;50.760;6.080;2023-05-07T07:13:17;4.00;;;2.47;;
9080;SDS011;13509;50.760;6.080;2023-05-07T07:15:46;2.60;;;2.33;;
9080;SDS011;13509;50.760;6.080;2023-05-07T07:18:14;3.40;;;2.10;;
9080;SDS011;13509;50.760;6.080;2023-05-07T07:20:42;2.73;;;2.10;;
9080;SDS011;13509;50.760;6.080;2023-05-07T07:23:12;3.40;;;2.33;;
9080;SDS011;13509;50.760;6.080;2023-05-07T07:25:41;3.97;;;2.20;;
9080;SDS011;13509;50.760;6.080;2023-05-07T07:28:09;2.93;;;2.33;;
9080;SDS011;13509;50.760;6.080;2023-05-07T07:30:37;3.07;;;2.30;;
9080;SDS011;13509;50.760;6.080;2023-05-07T07:33:06;3.83;;;2.50;;
9080;SDS011;13509;50.760;6.080;2023-05-07T07:35:34;4.27;;;2.50;;
9080;SDS011;13509;50.760;6.080;2023-05-07T07:38:02;3.70;;;2.20;;
9080;SDS011;13509;50.760;6.080;2023-05-07T07:40:33;3.57;;;2.07;;
9080;SDS011;13509;50.760;6.080;2023-05-07T07:43:02;2.50;;;2.07;;
9080;SDS011;13509;50.760;6.080;2023-05-07T07:45:31;3.07;;;2.20;;
9080;SDS011;13509;50.760;6.080;2023-05-07T07:47:59;2.93;;;2.00;;
9080;SDS011;13509;50.760;6.080;2023-05-07T07:50:27;3.97;;;1.57;;
9080;SDS011;13509;50.760;6.080;2023-05-07T07:53:10;1.73;;;1.50;;
9080;SDS011;13509;50.760;6.080;2023-05-07T07:55:39;2.07;;;1.67;;
9080;SDS011;13509;50.760;6.080;2023-05-07T07:58:07;2.50;;;1.80;;
9080;SDS011;13509;50.760;6.080;2023-05-07T08:00:36;2.73;;;1.43;;
9080;SDS011;13509;50.760;6.080;2023-05-07T08:03:04;1.30;;;1.20;;
9080;SDS011;13509;50.760;6.080;2023-05-07T08:05:33;3.87;;;1.60;;
9080;SDS011;13509;50.760;6.080;2023-05-07T08:08:02;2.20;;;1.30;;
9080;SDS011;13509;50.760;6.080;2023-05-07T08:10:30;3.27;;;1.60;;
9080;SDS011;13509;50.760;6.080;2023-05-07T08:13:02;3.97;;;1.60;;
9080;SDS011;13509;50.760;6.080;2023-05-07T08:15:30;6.40;;;1.60;;
9080;SDS011;13509;50.760;6.080;2023-05-07T08:17:59;2.07;;;1.50;;
9080;SDS011;13509;50.760;6.080;2023-05-07T08:20:27;1.63;;;1.37;;
9080;SDS011;13509;50.760;6.080;2023-05-07T08:22:56;3.53;;;1.33;;
9080;SDS011;13509;50.760;6.080;2023-05-07T08:25:24;1.37;;;1.00;;
9080;SDS011;13509;50.760;6.080;2023-05-07T08:27:52;3.53;;;1.40;;
9080;SDS011;13509;50.760;6.080;2023-05-07T08:30:21;1.33;;;1.17;;
9080;SDS011;13509;50.760;6.080;2023-05-07T08:32:53;2.10;;;1.37;;
9080;SDS011;13509;50.760;6.080;2023-05-07T08:35:21;2.50;;;1.33;;
9080;SDS011;13509;50.760;6.080;2023-05-07T08:37:49;3.00;;;1.50;;
9080;SDS011;13509;50.760;6.080;2023-05-07T08:40:17;1.17;;;1.10;;
9080;SDS011;13509;50.760;6.080;2023-05-07T08:42:48;2.60;;;1.33;;
9080;SDS011;13509;50.760;6.080;2023-05-07T08:45:17;3.53;;;1.50;;
9080;SDS011;13509;50.760;6.080;2023-05-07T08:47:50;2.00;;;1.50;;
9080;SDS011;13509;50.760;6.080;2023-05-07T08:50:20;2.10;;;1.40;;
9080;SDS011;13509;50.760;6.080;2023-05-07T08:52:48;2.13;;;1.40;;
9080;SDS011;13509;50.760;6.080;2023-05-07T08:55:16;2.92;;;1.48;;
9080;SDS011;13509;50.760;6.080;2023-05-07T08:57:45;1.83;;;1.30;;
9080;SDS011;13509;50.760;6.080;2023-05-07T09:00:14;1.38;;;1.20;;
9080;SDS011;13509;50.760;6.080;2023-05-07T09:02:42;1.35;;;1.15;;
9080;SDS011;13509;50.760;6.080;2023-05-07T09:05:12;2.60;;;1.33;;
9080;SDS011;13509;50.760;6.080;2023-05-07T09:07:40;2.38;;;1.27;;
9080;SDS011;13509;50.760;6.080;2023-05-07T09:10:11;3.53;;;1.20;;
9080;SDS011;13509;50.760;6.080;2023-05-07T09:12:41;2.00;;;1.20;;
9080;SDS011;13509;50.760;6.080;2023-05-07T09:15:10;1.92;;;1.40;;
9080;SDS011;13509;50.760;6.080;2023-05-07T09:17:39;1.73;;;1.55;;
9080;SDS011;13509;50.760;6.080;2023-05-07T09:20:08;3.60;;;1.50;;
9080;SDS011;13509;50.760;6.080;2023-05-07T09:22:38;3.25;;;1.80;;
9080;SDS011;13509;50.760;6.080;2023-05-07T09:25:07;1.77;;;1.45;;
9080;SDS011;13509;50.760;6.080;2023-05-07T09:27:35;3.85;;;1.63;;
9080;SDS011;13509;50.760;6.080;2023-05-07T09:30:04;1.92;;;1.40;;
9080;SDS011;13509;50.760;6.080;2023-05-07T09:32:34;2.45;;;1.40;;
9080;SDS011;13509;50.760;6.080;2023-05-07T09:35:03;2.58;;;1.70;;
9080;SDS011;13509;50.760;6.080;2023-05-07T09:37:31;4.75;;;1.58;;
9080;SDS011;13509;50.760;6.080;2023-05-07T09:40:00;2.45;;;1.55;;
9080;SDS011;13509;50.760;6.080;2023-05-07T09:42:29;2.13;;;1.75;;
9080;SDS011;13509;50.760;6.080;2023-05-07T09:44:58;3.45;;;1.73;;
9080;SDS011;13509;50.760;6.080;2023-05-07T09:47:27;2.90;;;1.73;;
9080;SDS011;13509;50.760;6.080;2023-05-07T09:49:58;5.00;;;1.52;;
9080;SDS011;13509;50.760;6.080;2023-05-07T09:52:27;2.35;;;1.63;;
9080;SDS011;13509;50.760;6.080;2023-05-07T09:55:01;2.50;;;1.80;;
9080;SDS011;13509;50.760;6.080;2023-05-07T09:57:29;2.23;;;1.63;;
9080;SDS011;13509;50.760;6.080;2023-05-07T09:59:58;2.00;;;1.53;;
9080;SDS011;13509;50.760;6.080;2023-05-07T10:02:28;4.10;;;1.90;;
9080;SDS011;13509;50.760;6.080;2023-05-07T10:04:57;4.83;;;1.70;;
9080;SDS011;13509;50.760;6.080;2023-05-07T10:07:26;3.33;;;1.53;;
9080;SDS011;13509;50.760;6.080;2023-05-07T10:09:55;2.07;;;1.60;;
9080;SDS011;13509;50.760;6.080;2023-05-07T10:12:24;5.60;;;2.10;;
9080;SDS011;13509;50.760;6.080;2023-05-07T10:14:53;2.93;;;1.67;;
9080;SDS011;13509;50.760;6.080;2023-05-07T10:17:22;1.87;;;1.60;;
9080;SDS011;13509;50.760;6.080;2023-05-07T10:19:51;3.87;;;2.20;;
9080;SDS011;13509;50.760;6.080;2023-05-07T10:22:21;2.70;;;1.80;;
9080;SDS011;13509;50.760;6.080;2023-05-07T10:24:49;1.90;;;1.50;;
9080;SDS011;13509;50.760;6.080;2023-05-07T10:27:20;2.20;;;1.77;;
9080;SDS011;13509;50.760;6.080;2023-05-07T10:29:51;2.37;;;2.00;;
9080;SDS011;13509;50.760;6.080;2023-05-07T10:32:30;3.30;;;1.80;;
9080;SDS011;13509;50.760;6.080;2023-05-07T10:35:02;1.87;;;1.57;;
9080;SDS011;13509;50.760;6.080;2023-05-07T10:37:30;2.57;;;1.60;;
9080;SDS011;13509;50.760;6.080;2023-05-07T10:39:59;2.43;;;1.77;;
9080;SDS011;13509;50.760;6.080;2023-05-07T10:42:27;1.57;;;1.47;;
9080;SDS011;13509;50.760;6.080;2023-05-07T10:44:56;2.47;;;1.40;;
9080;SDS011;13509;50.760;6.080;2023-05-07T10:47:25;1.53;;;1.43;;
9080;SDS011;13509;50.760;6.080;2023-05-07T10:52:40;3.87;;;1.67;;
9080;SDS011;13509;50.760;6.080;2023-05-07T10:55:21;3.30;;;1.70;;
9080;SDS011;13509;50.760;6.080;2023-05-07T10:57:51;3.40;;;1.70;;
9080;SDS011;13509;50.760;6.080;2023-05-07T11:03:07;2.47;;;1.50;;
9080;SDS011;13509;50.760;6.080;2023-05-07T11:05:37;1.70;;;1.40;;
9080;SDS011;13509;50.760;6.080;2023-05-07T11:08:05;3.30;;;1.53;;
9080;SDS011;13509;50.760;6.080;2023-05-07T11:10:50;3.63;;;1.50;;
9080;SDS011;13509;50.760;6.080;2023-05-07T11:13:18;2.60;;;1.40;;
9080;SDS011;13509;50.760;6.080;2023-05-07T11:15:47;3.07;;;1.40;;
9080;SDS011;13509;50.760;6.080;2023-05-07T11:18:17;2.53;;;1.80;;
9080;SDS011;13509;50.760;6.080;2023-05-07T11:20:49;2.20;;;1.90;;
9080;SDS011;13509;50.760;6.080;2023-05-07T11:26:26;2.53;;;1.87;;
9080;SDS011;13509;50.760;6.080;2023-05-07T11:28:55;2.60;;;1.87;;
9080;SDS011;13509;50.760;6.080;2023-05-07T11:31:23;2.50;;;1.90;;
9080;SDS011;13509;50.760;6.080;2023-05-07T11:33:54;4.30;;;2.10;;
9080;SDS011;13509;50.760;6.080;2023-05-07T11:36:23;3.00;;;1.90;;
9080;SDS011;13509;50.760;6.080;2023-05-07T11:38:52;3.57;;;1.83;;
9080;SDS011;13509;50.760;6.080;2023-05-07T11:41:20;4.10;;;2.10;;
9080;SDS011;13509;50.760;6.080;2023-05-07T11:43:55;3.87;;;2.00;;
9080;SDS011;13509;50.760;6.080;2023-05-07T11:46:24;7.80;;;2.40;;
9080;SDS011;13509;50.760;6.080;2023-05-07T11:48:52;3.97;;;2.33;;
9080;SDS011;13509;50.760;6.080;2023-05-07T11:51:22;2.20;;;2.00;;
9080;SDS011;13509;50.760;6.080;2023-05-07T11:53:52;2.80;;;1.90;;
9080;SDS011;13509;50.760;6.080;2023-05-07T11:56:20;5.20;;;2.00;;
9080;SDS011;13509;50.760;6.080;2023-05-07T11:58:48;5.27;;;2.30;;
9080;SDS011;13509;50.760;6.080;2023-05-07T12:01:18;3.40;;;1.90;;
9080;SDS011;13509;50.760;6.080;2023-05-07T12:03:46;2.77;;;2.23;;
9080;SDS011;13509;50.760;6.080;2023-05-07T12:06:16;3.10;;;2.23;;
9080;SDS011;13509;50.760;6.080;2023-05-07T12:08:44;3.93;;;2.00;;
9080;SDS011;13509;50.760;6.080;2023-05-07T12:11:15;4.23;;;2.70;;
9080;SDS011;13509;50.760;6.080;2023-05-07T12:13:45;3.13;;;2.80;;
9080;SDS011;13509;50.760;6.080;2023-05-07T12:16:12;7.13;;;3.53;;
9080;SDS011;13509;50.760;6.080;2023-05-07T12:18:41;6.70;;;4.23;;
9080;SDS011;13509;50.760;6.080;2023-05-07T12:21:09;7.63;;;4.83;;
9080;SDS011;13509;50.760;6.080;2023-05-07T12:23:39;6.00;;;4.37;;
9080;SDS011;13509;50.760;6.080;2023-05-07T12:26:07;5.63;;;4.93;;
9080;SDS011;13509;50.760;6.080;2023-05-07T12:28:36;9.07;;;5.47;;
9080;SDS011;13509;50.760;6.080;2023-05-07T12:31:06;6.37;;;4.60;;
9080;SDS011;13509;50.760;6.080;2023-05-07T12:33:34;10.67;;;5.73;;
9080;SDS011;13509;50.760;6.080;2023-05-07T12:36:03;7.60;;;5.27;;
9080;SDS011;13509;50.760;6.080;2023-05-07T12:38:37;7.43;;;5.07;;
9080;SDS011;13509;50.760;6.080;2023-05-07T12:41:07;7.67;;;5.17;;
9080;SDS011;13509;50.760;6.080;2023-05-07T12:43:36;7.77;;;5.30;;
9080;SDS011;13509;50.760;6.080;2023-05-07T12:46:05;7.53;;;5.03;;
9080;SDS011;13509;50.760;6.080;2023-05-07T12:48:36;6.33;;;4.43;;
9080;SDS011;13509;50.760;6.080;2023-05-07T12:51:05;8.63;;;4.90;;
9080;SDS011;13509;50.760;6.080;2023-05-07T12:53:33;8.67;;;4.83;;
9080;SDS011;13509;50.760;6.080;2023-05-07T12:56:08;4.90;;;4.47;;
9080;SDS011;13509;50.760;6.080;2023-05-07T12:58:36;7.03;;;5.30;;
9080;SDS011;13509;50.760;6.080;2023-05-07T13:01:06;9.80;;;5.70;;
9080;SDS011;13509;50.760;6.080;2023-05-07T13:03:36;9.40;;;5.47;;
9080;SDS011;13509;50.760;6.080;2023-05-07T13:06:06;10.43;;;5.70;;
9080;SDS011;13509;50.760;6.080;2023-05-07T13:08:36;5.90;;;5.30;;
9080;SDS011;13509;50.760;6.080;2023-05-07T13:11:07;10.50;;;6.33;;
9080;SDS011;13509;50.760;6.080;2023-05-07T13:13:38;8.63;;;5.50;;
9080;SDS011;13509;50.760;6.080;2023-05-07T13:16:07;8.03;;;5.20;;
9080;SDS011;13509;50.760;6.080;2023-05-07T13:18:37;8.43;;;5.33;;
9080;SDS011;13509;50.760;6.080;2023-05-07T13:21:06;7.33;;;5.00;;
9080;SDS011;13509;50.760;6.080;2023-05-07T13:23:34;8.80;;;5.73;;
9080;SDS011;13509;50.760;6.080;2023-05-07T13:26:04;8.20;;;5.70;;
9080;SDS011;13509;50.760;6.080;2023-05-07T13:28:52;10.10;;;4.83;;
9080;SDS011;13509;50.760;6.080;2023-05-07T13:31:20;8.20;;;5.00;;
9080;SDS011;13509;50.760;6.080;2023-05-07T13:33:48;7.50;;;4.80;;
9080;SDS011;13509;50.760;6.080;2023-05-07T13:36:16;12.37;;;4.87;;
9080;SDS011;13509;50.760;6.080;2023-05-07T13:38:44;9.70;;;4.70;;
9080;SDS011;13509;50.760;6.080;2023-05-07T13:41:12;7.90;;;4.63;;
9080;SDS011;13509;50.760;6.080;2023-05-07T13:43:40;8.63;;;4.83;;
9080;SDS011;13509;50.760;6.080;2023-05-07T13:46:10;8.20;;;4.80;;
9080;SDS011;13509;50.760;6.080;2023-05-07T13:48:38;6.37;;;4.70;;
9080;SDS011;13509;50.760;6.080;2023-05-07T13:51:06;11.33;;;5.17;;
9080;SDS011;13509;50.760;6.080;2023-05-07T13:53:33;7.67;;;4.83;;
9080;SDS011;13509;50.760;6.080;2023-05-07T13:56:01;6.37;;;4.37;;
9080;SDS011;13509;50.760;6.080;2023-05-07T13:58:30;8.90;;;4.50;;
9080;SDS011;13509;50.760;6.080;2023-05-07T14:00:59;4.33;;;3.43;;
9080;SDS011;13509;50.760;6.080;2023-05-07T14:03:28;6.50;;;3.60;;
9080;SDS011;13509;50.760;6.080;2023-05-07T14:05:58;6.23;;;3.43;;
9080;SDS011;13509;50.760;6.080;2023-05-07T14:08:27;4.43;;;3.50;;
9080;SDS011;13509;50.760;6.080;2023-05-07T14:10:57;5.13;;;3.67;;
9080;SDS011;13509;50.760;6.080;2023-05-07T14:13:26;4.77;;;3.10;;
9080;SDS011;13509;50.760;6.080;2023-05-07T14:15:54;3.57;;;2.97;;
9080;SDS011;13509;50.760;6.080;2023-05-07T14:18:22;3.17;;;2.80;;
9080;SDS011;13509;50.760;6.080;2023-05-07T14:20:51;7.00;;;2.90;;
9080;SDS011;13509;50.760;6.080;2023-05-07T14:23:19;2.63;;;2.33;;
9080;SDS011;13509;50.760;6.080;2023-05-07T14:25:51;5.63;;;3.47;;
9080;SDS011;13509;50.760;6.080;2023-05-07T14:28:19;6.07;;;2.93;;
9080;SDS011;13509;50.760;6.080;2023-05-07T14:30:47;3.90;;;2.97;;
9080;SDS011;13509;50.760;6.080;2023-05-07T14:33:15;3.90;;;3.33;;
9080;SDS011;13509;50.760;6.080;2023-05-07T14:35:44;4.93;;;3.10;;
9080;SDS011;13509;50.760;6.080;2023-05-07T14:38:16;5.40;;;3.50;;
9080;SDS011;13509;50.760;6.080;2023-05-07T14:40:44;5.13;;;3.80;;
9080;SDS011;13509;50.760;6.080;2023-05-07T14:43:12;7.37;;;4.20;;
9080;SDS011;13509;50.760;6.080;2023-05-07T14:45:40;5.60;;;3.20;;
9080;SDS011;13509;50.760;6.080;2023-05-07T14:48:08;5.43;;;3.50;;
9080;SDS011;13509;50.760;6.080;2023-05-07T14:50:41;6.03;;;3.20;;
9080;SDS011;13509;50.760;6.080;2023-05-07T14:53:09;4.83;;;2.93;;
9080;SDS011;13509;50.760;6.080;2023-05-07T14:55:38;3.67;;;2.83;;
9080;SDS011;13509;50.760;6.080;2023-05-07T14:58:06;3.77;;;3.17;;
9080;SDS011;13509;50.760;6.080;2023-05-07T15:00:34;4.80;;;2.93;;
9080;SDS011;13509;50.760;6.080;2023-05-07T15:03:04;5.10;;;3.37;;
9080;SDS011;13509;50.760;6.080;2023-05-07T15:05:34;5.40;;;3.20;;
9080;SDS011;13509;50.760;6.080;2023-05-07T15:08:03;5.93;;;3.40;;
9080;SDS011;13509;50.760;6.080;2023-05-07T15:10:31;5.63;;;3.20;;
9080;SDS011;13509;50.760;6.080;2023-05-07T15:13:07;8.20;;;3.40;;
9080;SDS011;13509;50.760;6.080;2023-05-07T15:15:41;5.60;;;3.30;;
9080;SDS011;13509;50.760;6.080;2023-05-07T15:18:09;4.23;;;3.50;;
9080;SDS011;13509;50.760;6.080;2023-05-07T15:20:37;4.80;;;3.57;;